createdAt,value
2022-08-26T00:04:18.440Z,14.60
2022-08-26T00:09:22.284Z,16.20
2022-08-26T00:14:30.831Z,14.98
2022-08-26T00:19:33.989Z,15.90
2022-08-26T00:24:36.611Z,15.05
2022-08-26T00:29:39.314Z,15.93
2022-08-26T00:34:42.031Z,15.95
2022-08-26T00:39:44.929Z,15.43
2022-08-26T00:44:48.445Z,15.95
2022-08-26T00:49:53.959Z,15.35
2022-08-26T00:55:20.156Z,16.25
2022-08-26T01:00:27.800Z,15.30
2022-08-26T01:05:30.858Z,16.23
2022-08-26T01:10:33.687Z,16.38
2022-08-26T01:15:42.902Z,16.05
2022-08-26T01:20:48.249Z,16.48
2022-08-26T01:25:59.766Z,16.52
2022-08-26T01:31:05.285Z,16.85
2022-08-26T01:36:08.726Z,17.38
2022-08-26T01:41:16.270Z,16.75
2022-08-26T01:46:24.415Z,16.00
2022-08-26T01:51:28.645Z,17.67
2022-08-26T01:56:33.331Z,17.50
2022-08-26T02:01:40.239Z,17.70
2022-08-26T02:06:44.561Z,17.20
2022-08-26T02:11:47.985Z,17.23
2022-08-26T02:16:53.256Z,17.77
2022-08-26T02:22:03.851Z,18.75
2022-08-26T02:27:06.758Z,17.70
2022-08-26T02:32:10.732Z,18.10
2022-08-26T02:37:14.630Z,17.67
2022-08-26T02:42:20.419Z,17.30
2022-08-26T02:47:24.875Z,17.98
2022-08-26T02:52:28.030Z,17.50
2022-08-26T02:57:31.199Z,17.98
2022-08-26T03:02:33.992Z,18.25
2022-08-26T03:07:36.951Z,17.80
2022-08-26T03:12:41.115Z,17.80
2022-08-26T03:17:44.902Z,19.50
2022-08-26T03:22:47.636Z,18.52
2022-08-26T03:27:52.903Z,17.80
2022-08-26T03:32:55.564Z,17.85
2022-08-26T03:37:58.862Z,18.08
2022-08-26T03:43:03.431Z,17.95
2022-08-26T03:48:06.349Z,18.15
2022-08-26T03:53:09.214Z,18.70
2022-08-26T03:58:16.080Z,19.38
2022-08-26T04:03:42.141Z,17.77
2022-08-26T04:08:45.413Z,17.23
2022-08-26T04:13:49.616Z,16.60
2022-08-26T04:18:52.700Z,16.42
2022-08-26T04:23:55.830Z,16.60
2022-08-26T04:29:01.389Z,17.15
2022-08-26T04:34:06.054Z,15.93
2022-08-26T04:39:12.176Z,15.30
2022-08-26T04:44:15.173Z,15.85
2022-08-26T04:49:18.249Z,14.23
2022-08-26T04:54:21.146Z,14.65
2022-08-26T04:59:24.581Z,15.27
2022-08-26T05:04:27.566Z,13.55
2022-08-26T05:09:32.129Z,13.05
2022-08-26T05:14:35.093Z,12.80
2022-08-26T05:19:38.589Z,12.63
2022-08-26T05:24:46.609Z,13.38
2022-08-26T05:29:54.449Z,12.55
2022-08-26T05:34:57.555Z,11.77
2022-08-26T05:40:04.023Z,11.32
2022-08-26T05:45:07.889Z,11.07
2022-08-26T05:50:10.635Z,11.05
2022-08-26T05:55:14.914Z,10.75
2022-08-26T06:00:19.062Z,12.23
2022-08-26T06:05:22.348Z,10.70
2022-08-26T06:10:33.201Z,10.13
2022-08-26T06:15:42.048Z,9.85
2022-08-26T06:20:57.396Z,8.95
2022-08-26T06:26:01.832Z,8.95
2022-08-26T06:31:06.230Z,8.13
2022-08-26T06:36:09.509Z,8.02
2022-08-26T06:41:12.441Z,7.82
2022-08-26T06:46:21.670Z,8.85
2022-08-26T06:51:27.488Z,8.50
2022-08-26T06:56:42.793Z,8.32
2022-08-26T07:01:45.664Z,8.25
2022-08-26T07:06:52.254Z,7.80
2022-08-26T07:11:56.580Z,8.20
2022-08-26T07:17:02.683Z,8.65
2022-08-26T07:22:06.656Z,7.95
2022-08-26T07:27:15.785Z,7.43
2022-08-26T07:32:22.956Z,7.70
2022-08-26T07:37:26.048Z,7.57
2022-08-26T07:42:28.837Z,7.50
2022-08-26T07:47:31.669Z,7.65
2022-08-26T07:52:35.439Z,7.07
2022-08-26T07:57:39.905Z,6.82
2022-08-26T08:02:45.133Z,6.97
2022-08-26T08:07:49.833Z,6.75
2022-08-26T08:12:58.068Z,7.63
2022-08-26T08:18:04.051Z,7.55
2022-08-26T08:23:07.024Z,7.47
2022-08-26T08:28:10.008Z,7.25
2022-08-26T08:33:13.616Z,6.75
2022-08-26T08:38:16.630Z,6.68
2022-08-26T08:43:44.107Z,7.80
2022-08-26T08:48:52.517Z,7.47
2022-08-26T08:53:58.932Z,7.80
2022-08-26T08:59:13.353Z,7.38
2022-08-26T09:05:00.123Z,7.20
2022-08-26T09:10:24.877Z,8.05
2022-08-26T09:15:44.870Z,7.60
2022-08-26T09:20:59.387Z,6.50
2022-08-26T09:26:29.357Z,6.38
2022-08-26T09:31:36.765Z,7.47
2022-08-26T09:36:46.579Z,7.22
2022-08-26T09:42:07.340Z,7.70
2022-08-26T09:47:10.749Z,8.15
2022-08-26T09:52:21.860Z,8.15
2022-08-26T09:57:30.411Z,7.50
2022-08-26T10:02:33.395Z,6.97
2022-08-26T10:07:49.495Z,8.60
2022-08-26T10:12:56.603Z,7.85
2022-08-26T10:18:25.224Z,7.60
2022-08-26T10:23:32.984Z,6.40
2022-08-26T10:28:46.262Z,7.85
2022-08-26T10:33:51.791Z,6.70
2022-08-26T10:38:55.391Z,6.00
2022-08-26T10:44:00.594Z,6.28
2022-08-26T10:49:14.641Z,7.18
2022-08-26T10:54:39.679Z,6.68
2022-08-26T11:00:38.484Z,6.85
2022-08-26T11:05:41.337Z,6.97
2022-08-26T11:11:00.879Z,6.90
2022-08-26T11:16:03.691Z,7.23
2022-08-26T11:22:06.648Z,7.00
2022-08-26T11:27:12.303Z,7.10
2022-08-26T11:32:44.189Z,7.00
2022-08-26T11:37:53.640Z,7.60
2022-08-26T11:43:05.791Z,7.20
2022-08-26T11:48:20.975Z,5.95
2022-08-26T11:53:26.163Z,5.03
2022-08-26T11:58:29.249Z,5.95
2022-08-26T12:03:39.922Z,5.68
2022-08-26T12:08:45.149Z,6.45
2022-08-26T12:14:00.689Z,6.63
2022-08-26T12:19:22.090Z,6.78
2022-08-26T12:24:28.778Z,5.80
2022-08-26T12:29:31.590Z,5.35
2022-08-26T12:34:34.644Z,5.25
2022-08-26T12:39:40.398Z,4.93
2022-08-26T12:44:53.312Z,5.20
2022-08-26T12:50:08.550Z,5.28
2022-08-26T12:55:47.845Z,5.35
2022-08-26T13:00:51.889Z,5.40
2022-08-26T13:06:08.357Z,5.10
2022-08-26T13:11:23.723Z,5.70
2022-08-26T13:16:27.474Z,6.18
2022-08-26T13:21:37.288Z,5.60
2022-08-26T13:31:45.850Z,6.20
2022-08-26T13:36:51.173Z,6.38
2022-08-26T13:41:54.618Z,6.68
2022-08-26T13:46:57.243Z,7.85
2022-08-26T13:51:59.967Z,6.53
2022-08-26T13:57:02.669Z,6.88
2022-08-26T14:02:05.436Z,6.90
2022-08-26T14:07:08.503Z,6.53
2022-08-26T14:12:11.139Z,6.63
2022-08-26T14:17:19.838Z,6.72
2022-08-26T14:22:22.999Z,6.88
2022-08-26T14:27:25.888Z,6.72
2022-08-26T14:32:29.592Z,6.38
2022-08-26T14:37:33.265Z,7.55
2022-08-26T14:42:36.412Z,6.53
2022-08-26T14:47:39.766Z,6.63
2022-08-26T14:53:03.709Z,6.78
2022-08-26T14:58:06.719Z,6.47
2022-08-26T15:03:09.480Z,7.13
2022-08-26T15:08:13.005Z,6.88
2022-08-26T15:13:15.699Z,6.10
2022-08-26T15:18:18.327Z,7.10
2022-08-26T15:23:21.317Z,6.53
2022-08-26T15:28:24.047Z,6.55
2022-08-26T15:33:26.805Z,6.05
2022-08-26T15:38:34.147Z,6.05
2022-08-26T15:43:37.565Z,7.20
2022-08-26T15:48:40.659Z,7.22
2022-08-26T15:53:43.348Z,7.05
2022-08-26T15:58:46.175Z,7.70
2022-08-26T16:03:49.272Z,7.72
2022-08-26T16:08:51.920Z,7.30
2022-08-26T16:13:55.528Z,7.78
2022-08-26T16:18:58.840Z,7.80
2022-08-26T16:24:01.742Z,8.27
2022-08-26T16:29:08.832Z,8.25
2022-08-26T16:34:11.534Z,8.30
2022-08-26T16:39:14.320Z,8.65
2022-08-26T16:44:17.109Z,8.48
2022-08-26T16:49:19.989Z,8.20
2022-08-26T16:54:22.670Z,8.55
2022-08-26T16:59:25.468Z,9.07
2022-08-26T17:04:29.114Z,9.50
2022-08-26T17:09:32.036Z,9.98
2022-08-26T17:14:35.218Z,11.30
2022-08-26T17:19:41.732Z,10.60
2022-08-26T17:24:49.849Z,10.13
2022-08-26T17:29:52.530Z,11.77
2022-08-26T17:34:55.378Z,12.88
2022-08-26T17:39:58.590Z,12.57
2022-08-26T17:45:02.575Z,13.10
2022-08-26T17:50:10.408Z,12.65
2022-08-26T17:55:15.641Z,13.82
2022-08-26T18:00:21.681Z,13.00
2022-08-26T18:05:24.907Z,11.80
2022-08-26T18:10:27.929Z,12.40
2022-08-26T18:15:30.547Z,11.60
2022-08-26T18:20:33.484Z,12.25
2022-08-26T18:25:41.251Z,11.75
2022-08-26T18:30:44.776Z,11.02
2022-08-26T18:35:47.563Z,12.80
2022-08-26T18:40:50.335Z,12.40
2022-08-26T18:46:02.456Z,12.57
2022-08-26T18:51:06.948Z,12.02
2022-08-26T18:56:14.313Z,12.15
2022-08-26T19:01:23.250Z,11.63
2022-08-26T19:06:32.872Z,12.02
2022-08-26T19:11:37.290Z,11.38
2022-08-26T19:16:43.150Z,11.38
2022-08-26T19:21:47.054Z,12.60
2022-08-26T19:26:57.788Z,12.23
2022-08-26T19:32:02.017Z,11.85
2022-08-26T19:37:05.140Z,11.45
2022-08-26T19:42:07.783Z,11.45
2022-08-26T19:47:12.101Z,11.90
2022-08-26T19:52:15.205Z,12.45
2022-08-26T19:57:18.727Z,11.75
2022-08-26T20:02:21.571Z,13.07
2022-08-26T20:07:24.268Z,13.60
2022-08-26T20:12:27.609Z,13.32
2022-08-26T20:17:30.863Z,13.35
2022-08-26T20:22:33.853Z,13.82
2022-08-26T20:27:38.445Z,13.35
2022-08-26T20:32:42.260Z,14.75
2022-08-26T20:37:44.952Z,13.55
2022-08-26T20:42:48.036Z,13.07
2022-08-26T20:47:51.828Z,13.50
2022-08-26T20:52:55.250Z,14.93
2022-08-26T20:58:17.257Z,16.20
2022-08-26T21:03:20.230Z,15.73
2022-08-26T21:08:23.543Z,14.85
2022-08-26T21:13:27.309Z,13.82
2022-08-26T21:18:31.527Z,14.25
2022-08-26T21:23:36.297Z,14.00
2022-08-26T21:28:41.239Z,12.98
2022-08-26T21:33:43.969Z,14.60
2022-08-26T21:38:47.337Z,13.68
2022-08-26T21:43:53.829Z,13.48
2022-08-26T21:49:00.280Z,13.18
2022-08-26T21:54:10.505Z,13.52
2022-08-26T21:59:17.423Z,13.77
2022-08-26T22:04:20.621Z,14.45
2022-08-26T22:09:26.069Z,14.25
2022-08-26T22:14:30.879Z,14.13
2022-08-26T22:19:45.750Z,14.55
2022-08-26T22:24:49.321Z,13.23
2022-08-26T22:29:52.257Z,12.88
2022-08-26T22:34:54.941Z,13.07
2022-08-26T22:39:57.685Z,13.40
2022-08-26T22:45:02.270Z,13.45
2022-08-26T22:50:07.326Z,13.18
2022-08-26T22:55:11.170Z,13.48
2022-08-26T23:00:14.569Z,13.40
2022-08-26T23:05:17.867Z,13.32
2022-08-26T23:10:20.767Z,12.88
2022-08-26T23:15:23.599Z,13.20
2022-08-26T23:20:28.084Z,13.18
2022-08-26T23:25:32.569Z,12.40
2022-08-26T23:30:35.319Z,11.88
2022-08-26T23:35:38.800Z,12.05
2022-08-26T23:40:44.157Z,12.75
2022-08-26T23:45:47.032Z,13.10
2022-08-26T23:51:08.574Z,13.95
2022-08-26T23:56:16.104Z,14.32
